Time;durP1;ratioP1;P1;durP2;ratioP2;P2;SDS_P1;SDS_P2;PMS_P1;PMS_P2;Temp;Humidity;BMP_temperature;BMP_pressure;BME280_temperature;BME280_humidity;BME280_pressure;Samples;Min_cycle;Max_cycle;Signal;HPM_P1;HPM_P2
2022/10/28 00:01:16;;;;;;;35.40;30.15;;;12.00;99.90;;;;;;6281365;22;20181;-85
2022/10/28 00:03:46;;;;;;;35.13;27.85;;;12.00;99.90;;;;;;6255250;22;20214;-86
2022/10/28 00:06:18;;;;;;;40.20;30.15;;;11.80;99.90;;;;;;6281387;22;20179;-85
2022/10/28 00:08:45;;;;;;;41.05;30.73;;;11.70;99.90;;;;;;6257409;22;20209;-86
2022/10/28 00:11:18;;;;;;;38.53;30.77;;;11.60;99.90;;;;;;6254442;22;20241;-85
2022/10/28 00:13:45;;;;;;;40.13;31.20;;;11.50;99.90;;;;;;6262483;22;20358;-86
2022/10/28 00:16:16;;;;;;;37.83;30.15;;;11.60;99.90;;;;;;6285941;22;20171;-83
2022/10/28 00:18:44;;;;;;;47.50;31.30;;;11.60;99.90;;;;;;6260040;22;20167;-85
2022/10/28 00:21:15;;;;;;;32.88;29.38;;;11.60;99.90;;;;;;6259378;22;20212;-86
2022/10/28 00:23:42;;;;;;;33.22;27.48;;;11.60;99.90;;;;;;6260782;22;20183;-84
2022/10/28 00:26:13;;;;;;;38.47;29.45;;;11.60;99.90;;;;;;6286318;22;20183;-84
2022/10/28 00:28:43;;;;;;;33.55;29.02;;;11.60;99.90;;;;;;6287553;22;20175;-87
2022/10/28 00:31:11;;;;;;;32.05;28.65;;;11.70;99.90;;;;;;6259480;22;20509;-86
2022/10/28 00:33:38;;;;;;;32.53;26.77;;;11.80;99.90;;;;;;6260696;22;20190;-86
2022/10/28 00:36:13;;;;;;;34.75;27.38;;;11.80;99.90;;;;;;6260194;22;20228;-84
2022/10/28 00:38:42;;;;;;;38.08;29.25;;;11.70;99.90;;;;;;6258722;22;20237;-85
2022/10/28 00:41:11;;;;;;;32.22;25.30;;;11.60;99.90;;;;;;6285103;22;20183;-84
2022/10/28 00:43:41;;;;;;;32.40;26.67;;;11.60;99.90;;;;;;6284956;22;20233;-84
2022/10/28 00:46:34;;;;;;;38.10;27.77;;;11.50;99.90;;;;;;6259218;22;20213;-84
2022/10/28 00:49:24;;;;;;;35.72;27.90;;;11.40;99.90;;;;;;6285795;22;20201;-87
2022/10/28 00:52:03;;;;;;;39.35;28.73;;;11.40;99.90;;;;;;6286432;22;20529;-86
2022/10/28 00:54:31;;;;;;;38.90;26.70;;;11.30;99.90;;;;;;6287259;22;20165;-85
2022/10/28 00:57:02;;;;;;;32.13;28.45;;;11.40;99.90;;;;;;6286612;22;20213;-87
2022/10/28 00:59:33;;;;;;;36.70;29.20;;;11.50;99.90;;;;;;6288744;22;20167;-86
2022/10/28 01:02:01;;;;;;;36.40;27.83;;;11.40;99.90;;;;;;6295999;22;20151;-86
2022/10/28 01:04:28;;;;;;;36.63;26.38;;;11.40;99.90;;;;;;6297458;22;20175;-81
2022/10/28 01:06:57;;;;;;;36.80;27.55;;;11.40;99.90;;;;;;6266855;22;20182;-83
2022/10/28 01:09:24;;;;;;;31.83;25.80;;;11.30;99.90;;;;;;6285672;22;20500;-86
2022/10/28 01:12:07;;;;;;;34.58;27.70;;;11.40;99.90;;;;;;6261413;22;20183;-85
2022/10/28 01:15:03;;;;;;;37.90;27.75;;;11.30;99.90;;;;;;6285487;22;20158;-85
2022/10/28 01:17:37;;;;;;;39.88;30.15;;;11.30;99.90;;;;;;6259538;22;20168;-84
2022/10/28 01:20:28;;;;;;;36.42;28.38;;;11.30;99.90;;;;;;6298619;22;20200;-84
2022/10/28 01:23:28;;;;;;;33.00;27.63;;;11.30;99.90;;;;;;6266807;22;20201;-86
2022/10/28 01:26:22;;;;;;;35.03;28.10;;;11.30;99.90;;;;;;6285230;22;20171;-86
2022/10/28 01:29:02;;;;;;;38.85;29.88;;;11.30;99.90;;;;;;6285835;22;20235;-85
2022/10/28 01:31:34;;;;;;;34.35;28.25;;;11.30;99.90;;;;;;6257941;22;20467;-86
2022/10/28 01:34:07;;;;;;;35.15;29.05;;;11.30;99.90;;;;;;6255065;22;20194;-85
2022/10/28 01:36:55;;;;;;;34.13;28.23;;;11.30;99.90;;;;;;6254634;22;20182;-82
2022/10/28 01:39:50;;;;;;;35.13;28.05;;;11.30;99.90;;;;;;6280805;22;20167;-85
2022/10/28 01:42:33;;;;;;;34.85;27.25;;;11.30;99.90;;;;;;6276846;22;20272;-87
2022/10/28 01:45:11;;;;;;;37.63;28.60;;;11.30;99.90;;;;;;6280225;22;20224;-85
2022/10/28 01:47:55;;;;;;;31.95;28.30;;;11.30;99.90;;;;;;6254212;22;20185;-85
2022/10/28 01:50:34;;;;;;;34.58;28.70;;;11.20;99.90;;;;;;6253343;22;20174;-87
2022/10/28 01:53:06;;;;;;;33.55;28.80;;;11.20;99.90;;;;;;6253173;22;20170;-81
2022/10/28 01:55:37;;;;;;;34.85;29.17;;;11.20;99.90;;;;;;6279397;22;20167;-84
2022/10/28 01:58:07;;;;;;;37.80;28.85;;;11.20;99.90;;;;;;6253326;22;20386;-85
2022/10/28 02:00:36;;;;;;;33.28;27.65;;;11.30;99.90;;;;;;6280737;22;20182;-86
2022/10/28 02:03:07;;;;;;;36.75;28.25;;;11.30;99.90;;;;;;6279684;22;20202;-84
2022/10/28 02:05:41;;;;;;;38.65;28.20;;;11.40;99.90;;;;;;6280828;22;20397;-86
2022/10/28 02:08:21;;;;;;;40.08;26.38;;;11.30;99.90;;;;;;6281291;22;20213;-84
2022/10/28 02:11:00;;;;;;;42.33;29.23;;;11.30;99.90;;;;;;6282895;22;20216;-85
2022/10/28 02:13:50;;;;;;;34.00;28.65;;;11.30;99.90;;;;;;6257936;22;20190;-86
2022/10/28 02:16:33;;;;;;;38.35;28.77;;;11.30;99.90;;;;;;6258683;22;20171;-86
2022/10/28 02:19:26;;;;;;;36.50;27.58;;;11.30;99.90;;;;;;6290735;22;20197;-85
2022/10/28 02:22:35;;;;;;;40.25;28.70;;;11.30;99.90;;;;;;6264436;22;20166;-87
2022/10/28 02:25:28;;;;;;;32.72;28.77;;;11.30;99.90;;;;;;6209720;22;20183;-84
2022/10/28 02:28:07;;;;;;;30.20;25.38;;;11.30;99.90;;;;;;6296711;22;20167;-84
2022/10/28 02:31:05;;;;;;;37.67;28.80;;;11.40;99.90;;;;;;6299497;22;20204;-85
2022/10/28 02:33:37;;;;;;;35.55;28.58;;;11.40;99.90;;;;;;6289844;22;20194;-84
2022/10/28 02:36:10;;;;;;;32.80;26.63;;;11.50;99.90;;;;;;6282498;22;20182;-86
2022/10/28 02:38:42;;;;;;;33.78;29.35;;;11.50;99.90;;;;;;6282568;22;20175;-85
2022/10/28 02:41:24;;;;;;;35.80;26.55;;;11.60;99.90;;;;;;6256154;22;20483;-85
2022/10/28 02:43:59;;;;;;;38.20;27.95;;;11.70;99.90;;;;;;6255963;22;20194;-85
2022/10/28 02:46:28;;;;;;;41.25;31.80;;;11.70;99.90;;;;;;6281692;22;20166;-85
2022/10/28 02:49:09;;;;;;;34.33;29.60;;;11.70;99.90;;;;;;6282664;22;20175;-85
2022/10/28 02:51:48;;;;;;;43.50;27.67;;;11.50;99.90;;;;;;6281440;22;20167;-83
2022/10/28 02:54:18;;;;;;;40.33;30.95;;;11.40;99.90;;;;;;6282427;22;20166;-85
2022/10/28 02:57:12;;;;;;;42.05;28.55;;;11.40;99.90;;;;;;6281801;22;20179;-85
2022/10/28 02:59:40;;;;;;;38.17;29.23;;;11.40;99.90;;;;;;6281699;22;20183;-85
2022/10/28 03:02:09;;;;;;;38.08;28.38;;;11.40;99.90;;;;;;6255636;22;20425;-85
2022/10/28 03:04:36;;;;;;;34.60;28.30;;;11.50;99.90;;;;;;6281688;22;20503;-85
2022/10/28 03:07:03;;;;;;;42.35;29.90;;;11.50;99.90;;;;;;6282764;22;20545;-86
2022/10/28 03:09:30;;;;;;;39.28;30.73;;;11.50;99.90;;;;;;6282362;22;20212;-85
2022/10/28 03:11:57;;;;;;;37.97;28.90;;;11.70;99.90;;;;;;6256180;22;20190;-85
2022/10/28 03:14:24;;;;;;;39.45;28.77;;;11.60;99.90;;;;;;6256298;22;20183;-86
2022/10/28 03:16:51;;;;;;;40.50;29.55;;;11.70;99.90;;;;;;6299398;22;20169;-87
2022/10/28 03:19:18;;;;;;;34.00;27.70;;;11.80;99.90;;;;;;6272914;22;20260;-86
2022/10/28 03:21:45;;;;;;;38.67;27.42;;;11.80;99.90;;;;;;6271977;22;20561;-85
2022/10/28 03:24:12;;;;;;;37.40;27.70;;;11.70;99.90;;;;;;6297468;22;20216;-87
2022/10/28 03:26:39;;;;;;;37.25;27.83;;;11.70;99.90;;;;;;6256868;22;20491;-86
2022/10/28 03:29:06;;;;;;;41.15;29.55;;;11.60;99.90;;;;;;6282837;22;20183;-86
2022/10/28 03:31:33;;;;;;;41.67;30.00;;;11.50;99.90;;;;;;6262260;22;20448;-86
2022/10/28 03:34:00;;;;;;;43.35;26.70;;;11.50;99.90;;;;;;6255362;22;20194;-87
2022/10/28 03:36:28;;;;;;;32.70;27.77;;;11.60;99.90;;;;;;6295899;22;20182;-87
2022/10/28 03:38:55;;;;;;;38.70;26.88;;;11.70;99.90;;;;;;6266096;22;20186;-86
2022/10/28 03:41:22;;;;;;;37.22;28.08;;;11.60;99.90;;;;;;6255463;22;20174;-83
2022/10/28 03:43:48;;;;;;;35.25;27.13;;;11.80;99.90;;;;;;6281961;22;20186;-85
2022/10/28 03:46:16;;;;;;;37.05;29.15;;;11.70;99.90;;;;;;6281167;22;20494;-86
2022/10/28 03:48:42;;;;;;;37.70;28.67;;;11.70;99.90;;;;;;6281792;22;20182;-88
2022/10/28 03:51:09;;;;;;;43.50;27.23;;;11.50;99.90;;;;;;6254511;22;20225;-84
2022/10/28 03:53:36;;;;;;;37.40;28.73;;;11.30;99.90;;;;;;6281177;22;20269;-86
2022/10/28 03:56:03;;;;;;;36.60;28.42;;;11.40;99.90;;;;;;6280431;22;20564;-86
2022/10/28 03:58:30;;;;;;;41.42;26.08;;;11.50;99.90;;;;;;6281542;22;20183;-86
2022/10/28 04:00:57;;;;;;;33.85;26.25;;;11.60;99.90;;;;;;6281191;22;20171;-85
2022/10/28 04:03:24;;;;;;;35.15;29.08;;;11.70;99.90;;;;;;6280308;22;20191;-85
2022/10/28 04:05:52;;;;;;;36.70;28.85;;;11.60;99.90;;;;;;6254837;22;20556;-85
2022/10/28 04:08:20;;;;;;;39.80;27.83;;;11.60;99.90;;;;;;6254989;22;20228;-85
2022/10/28 04:10:50;;;;;;;41.13;28.98;;;11.60;99.90;;;;;;6282593;22;20197;-86
2022/10/28 04:13:16;;;;;;;42.30;28.90;;;11.50;99.90;;;;;;6254406;22;20352;-87
2022/10/28 04:15:43;;;;;;;44.20;28.92;;;11.30;99.90;;;;;;6255388;22;20189;-87
2022/10/28 04:18:11;;;;;;;40.35;29.67;;;11.40;99.90;;;;;;6293653;22;20182;-87
2022/10/28 04:20:38;;;;;;;37.95;27.02;;;11.40;99.90;;;;;;6264424;22;20183;-85
2022/10/28 04:23:05;;;;;;;37.65;28.23;;;11.60;99.90;;;;;;6260343;22;20191;-86
2022/10/28 04:25:32;;;;;;;40.22;27.77;;;11.70;99.90;;;;;;6284112;22;20183;-81
2022/10/28 04:27:59;;;;;;;43.95;28.77;;;11.60;99.90;;;;;;6257326;22;20217;-84
2022/10/28 04:30:26;;;;;;;39.70;27.33;;;11.30;99.90;;;;;;6282821;22;20175;-85
2022/10/28 04:32:53;;;;;;;41.50;28.75;;;11.20;99.90;;;;;;6283074;22;20187;-87
2022/10/28 04:35:20;;;;;;;42.28;28.52;;;11.30;99.90;;;;;;6282895;22;20513;-87
2022/10/28 04:37:47;;;;;;;35.70;27.40;;;11.20;99.90;;;;;;6256284;22;20240;-85
2022/10/28 04:40:14;;;;;;;35.10;25.85;;;11.30;99.90;;;;;;6281810;22;20186;-87
2022/10/28 04:42:41;;;;;;;39.10;29.10;;;11.20;99.90;;;;;;6281934;22;20179;-86
2022/10/28 04:45:08;;;;;;;42.90;28.88;;;11.10;99.90;;;;;;6255487;22;20175;-87
2022/10/28 04:47:35;;;;;;;33.70;25.17;;;11.20;99.90;;;;;;6285134;22;20187;-85
2022/10/28 04:50:05;;;;;;;41.88;28.85;;;11.50;99.90;;;;;;6260004;22;20174;-87
2022/10/28 04:52:32;;;;;;;36.45;27.35;;;11.40;99.90;;;;;;6260407;22;20236;-88
2022/10/28 04:54:59;;;;;;;37.25;27.58;;;11.40;99.90;;;;;;6256555;22;20183;-86
2022/10/28 04:57:25;;;;;;;41.75;29.15;;;11.50;99.90;;;;;;6254561;22;20186;-87
2022/10/28 04:59:54;;;;;;;36.28;29.48;;;11.60;99.90;;;;;;6254170;22;20175;-87
2022/10/28 05:02:22;;;;;;;35.90;27.77;;;11.50;99.90;;;;;;6253007;22;20183;-87
2022/10/28 05:04:49;;;;;;;35.15;25.52;;;11.40;99.90;;;;;;6254774;22;20281;-86
2022/10/28 05:07:16;;;;;;;36.95;25.88;;;11.50;99.90;;;;;;6255229;22;20183;-87
2022/10/28 05:09:49;;;;;;;36.25;26.35;;;11.30;99.90;;;;;;6283500;22;20213;-87
2022/10/28 05:12:16;;;;;;;33.10;25.52;;;11.40;99.90;;;;;;6256597;22;20495;-84
2022/10/28 05:14:43;;;;;;;33.65;24.20;;;11.40;99.90;;;;;;6255491;22;20183;-85
2022/10/28 05:17:10;;;;;;;29.88;25.13;;;11.30;99.90;;;;;;6282244;22;20254;-87
2022/10/28 05:19:37;;;;;;;36.22;26.80;;;11.20;99.90;;;;;;6255660;22;20179;-87
2022/10/28 05:22:04;;;;;;;30.40;26.30;;;11.20;99.90;;;;;;6282027;22;20239;-87
2022/10/28 05:24:31;;;;;;;41.97;25.23;;;11.10;99.90;;;;;;6282996;22;20256;-88
2022/10/28 05:26:59;;;;;;;36.03;24.98;;;11.20;99.90;;;;;;6257444;22;20175;-87
2022/10/28 05:29:26;;;;;;;30.52;24.95;;;11.30;99.90;;;;;;6258101;22;20175;-86
2022/10/28 05:31:59;;;;;;;36.75;24.55;;;11.30;99.90;;;;;;6257722;22;20224;-85
2022/10/28 05:34:26;;;;;;;35.33;28.75;;;11.30;99.90;;;;;;6262047;22;20190;-85
2022/10/28 05:36:53;;;;;;;35.88;25.58;;;11.40;99.90;;;;;;6283481;22;20174;-85
2022/10/28 05:39:20;;;;;;;35.63;26.92;;;11.20;99.90;;;;;;6281881;22;20185;-86
2022/10/28 05:41:47;;;;;;;36.95;27.33;;;11.30;99.90;;;;;;6283662;22;20175;-85
2022/10/28 05:44:14;;;;;;;35.25;26.95;;;11.30;99.90;;;;;;6256361;22;20198;-85
2022/10/28 05:46:41;;;;;;;31.27;25.70;;;11.30;99.90;;;;;;6255828;22;20424;-86
2022/10/28 05:49:08;;;;;;;34.80;26.50;;;11.20;99.90;;;;;;6259051;22;20191;-87
2022/10/28 05:51:35;;;;;;;36.97;26.55;;;11.30;99.90;;;;;;6255602;22;20186;-83
2022/10/28 05:54:02;;;;;;;28.98;24.75;;;11.30;99.90;;;;;;6296814;22;20201;-87
2022/10/28 05:56:29;;;;;;;41.72;27.02;;;11.10;99.90;;;;;;6264794;22;20183;-84
2022/10/28 05:58:56;;;;;;;32.63;25.80;;;11.00;99.90;;;;;;6297960;22;20166;-86
2022/10/28 06:01:23;;;;;;;35.38;26.63;;;10.90;99.90;;;;;;6269439;22;20167;-82
2022/10/28 06:03:50;;;;;;;34.03;26.30;;;10.90;99.90;;;;;;6264272;22;20257;-85
2022/10/28 06:06:17;;;;;;;33.35;27.55;;;11.00;99.90;;;;;;6260071;22;20226;-84
2022/10/28 06:08:44;;;;;;;33.65;25.25;;;11.00;99.90;;;;;;6285008;22;20175;-86
2022/10/28 06:11:12;;;;;;;32.25;23.90;;;11.20;99.90;;;;;;6256748;22;20217;-85
2022/10/28 06:13:48;;;;;;;33.22;27.55;;;11.30;99.90;;;;;;6282780;22;20183;-86
2022/10/28 06:16:14;;;;;;;34.78;25.05;;;11.40;99.90;;;;;;6255704;22;20175;-84
2022/10/28 06:18:42;;;;;;;30.75;25.70;;;11.40;99.90;;;;;;6284342;22;20237;-86
2022/10/28 06:21:10;;;;;;;32.25;25.45;;;11.40;99.90;;;;;;6256984;22;20546;-87
2022/10/28 06:23:37;;;;;;;32.25;23.45;;;11.50;99.90;;;;;;6254175;22;20557;-86
2022/10/28 06:26:05;;;;;;;31.42;26.00;;;11.60;99.90;;;;;;6254125;22;20174;-85
2022/10/28 06:28:32;;;;;;;31.15;23.02;;;11.50;99.90;;;;;;6253539;22;20217;-82
2022/10/28 06:31:07;;;;;;;30.58;24.10;;;11.60;99.90;;;;;;6281339;22;20344;-84
2022/10/28 06:33:34;;;;;;;36.63;22.98;;;11.60;99.90;;;;;;6254554;22;20189;-82
2022/10/28 06:36:02;;;;;;;28.63;22.50;;;11.80;99.90;;;;;;6253732;22;20633;-82
2022/10/28 06:38:29;;;;;;;30.65;24.90;;;11.80;99.90;;;;;;6253864;22;20213;-82
2022/10/28 06:40:58;;;;;;;26.33;21.70;;;11.70;99.90;;;;;;6279734;22;20487;-87
2022/10/28 06:43:26;;;;;;;30.77;22.20;;;11.70;99.90;;;;;;6259124;22;20179;-82
2022/10/28 06:45:55;;;;;;;25.55;21.60;;;11.80;99.90;;;;;;6282626;22;20182;-85
2022/10/28 06:48:23;;;;;;;24.25;20.00;;;11.80;99.90;;;;;;6280507;22;20237;-83
2022/10/28 06:50:54;;;;;;;22.75;19.60;;;12.00;99.90;;;;;;6280306;22;20218;-86
2022/10/28 06:53:21;;;;;;;22.55;19.52;;;12.50;99.90;;;;;;6253430;22;20372;-84
2022/10/28 06:55:54;;;;;;;27.02;19.90;;;12.60;99.90;;;;;;6253452;22;20183;-83
2022/10/28 06:58:21;;;;;;;19.98;16.45;;;12.90;99.90;;;;;;6280222;22;20178;-84
2022/10/28 07:00:48;;;;;;;17.08;15.23;;;13.20;99.90;;;;;;6279996;22;20175;-85
2022/10/28 07:03:16;;;;;;;18.02;13.75;;;13.60;99.90;;;;;;6281407;22;20455;-84
2022/10/28 07:05:42;;;;;;;16.60;13.68;;;13.80;99.90;;;;;;6281002;22;20183;-81
2022/10/28 07:08:09;;;;;;;14.75;13.18;;;14.20;99.90;;;;;;6281541;22;20348;-85
2022/10/28 07:10:39;;;;;;;17.20;12.88;;;14.40;99.90;;;;;;6254927;22;20183;-84
2022/10/28 07:13:06;;;;;;;16.38;12.48;;;14.80;99.90;;;;;;6282575;22;20171;-83
2022/10/28 07:15:33;;;;;;;16.33;11.23;;;14.90;99.90;;;;;;6281472;22;20205;-85
2022/10/28 07:18:01;;;;;;;13.43;11.63;;;15.00;99.90;;;;;;6281204;22;20217;-85
2022/10/28 07:20:30;;;;;;;11.70;10.50;;;15.80;99.90;;;;;;6254928;22;20572;-82
2022/10/28 07:22:59;;;;;;;11.13;9.90;;;16.40;99.90;;;;;;6281968;22;20437;-82
2022/10/28 07:25:29;;;;;;;13.70;11.10;;;16.40;99.90;;;;;;6280778;22;20473;-84
2022/10/28 07:27:58;;;;;;;19.83;9.73;;;16.30;99.90;;;;;;6280340;22;20626;-84
2022/10/28 07:30:26;;;;;;;16.07;12.07;;;15.90;99.90;;;;;;6253688;22;20604;-82
2022/10/28 07:32:54;;;;;;;10.20;8.83;;;15.80;99.90;;;;;;6258273;22;20431;-82
2022/10/28 07:35:21;;;;;;;16.60;10.47;;;16.10;99.90;;;;;;6284811;22;20764;-83
2022/10/28 07:37:48;;;;;;;15.30;8.73;;;16.60;99.90;;;;;;6281688;22;20393;-86
2022/10/28 07:40:15;;;;;;;10.30;8.53;;;17.40;99.90;;;;;;6282568;22;20431;-84
2022/10/28 07:42:42;;;;;;;20.43;10.67;;;18.00;99.90;;;;;;6282483;22;20388;-84
2022/10/28 07:45:09;;;;;;;10.27;8.97;;;18.60;99.90;;;;;;6255255;22;20444;-82
2022/10/28 07:47:36;;;;;;;10.90;9.23;;;19.00;99.90;;;;;;6256018;22;20408;-83
2022/10/28 07:50:04;;;;;;;11.47;9.50;;;19.10;99.90;;;;;;6282069;22;20396;-84
2022/10/28 07:52:32;;;;;;;13.53;9.43;;;19.60;99.90;;;;;;6282545;22;20697;-84
2022/10/28 07:54:59;;;;;;;10.33;8.97;;;20.10;99.90;;;;;;6283069;22;20405;-83
2022/10/28 07:57:28;;;;;;;10.17;9.20;;;20.40;99.90;;;;;;6282502;22;20375;-83
2022/10/28 07:59:55;;;;;;;12.37;8.70;;;20.70;99.90;;;;;;6255264;22;20408;-82
2022/10/28 08:02:24;;;;;;;10.00;8.30;;;20.90;99.90;;;;;;6282201;22;20391;-83
2022/10/28 08:04:51;;;;;;;12.50;10.53;;;20.90;99.90;;;;;;6283197;22;20431;-83
2022/10/28 08:07:19;;;;;;;15.43;8.90;;;21.20;99.90;;;;;;6282525;22;20416;-83
2022/10/28 08:09:45;;;;;;;13.10;9.97;;;20.60;99.90;;;;;;6269623;22;20426;-83
2022/10/28 08:12:14;;;;;;;10.20;9.27;;;20.50;99.90;;;;;;6271600;22;20486;-83
2022/10/28 08:14:41;;;;;;;10.73;8.73;;;20.30;99.90;;;;;;6294243;22;20404;-83
2022/10/28 08:17:08;;;;;;;13.47;9.70;;;21.20;99.90;;;;;;6270609;22;20388;-83
2022/10/28 08:19:35;;;;;;;15.33;10.40;;;22.60;99.90;;;;;;6261049;22;20395;-83
2022/10/28 08:22:02;;;;;;;11.57;9.00;;;23.70;99.90;;;;;;6254986;22;20363;-82
2022/10/28 08:24:29;;;;;;;9.60;7.57;;;24.50;99.90;;;;;;6280928;22;20780;-82
2022/10/28 08:26:57;;;;;;;13.63;7.90;;;24.60;99.90;;;;;;6281108;22;20374;-80
2022/10/28 08:29:26;;;;;;;10.60;7.77;;;23.60;99.90;;;;;;6281481;22;20440;-82
2022/10/28 08:31:56;;;;;;;8.33;7.50;;;23.10;99.90;;;;;;6281662;22;20377;-82
2022/10/28 08:34:28;;;;;;;19.93;8.47;;;23.50;99.90;;;;;;6280953;22;20437;-82
2022/10/28 08:36:56;;;;;;;11.30;8.17;;;23.80;99.90;;;;;;6280416;22;20381;-83
2022/10/28 08:39:23;;;;;;;8.03;7.23;;;24.10;99.90;;;;;;6281042;22;20487;-81
2022/10/28 08:42:41;;;;;;;9.33;6.63;;;23.50;99.90;;;;;;6280221;22;20589;-82
2022/10/28 08:45:24;;;;;;;7.87;7.10;;;23.70;99.90;;;;;;6280919;22;20800;-81
2022/10/28 08:48:11;;;;;;;8.10;6.57;;;24.20;99.90;;;;;;6254656;22;20579;-82
2022/10/28 08:51:16;;;;;;;7.90;6.70;;;24.20;99.90;;;;;;6257013;22;20378;-84
2022/10/28 08:53:56;;;;;;;9.93;6.13;;;23.50;99.90;;;;;;6280198;22;20805;-81
2022/10/28 08:56:47;;;;;;;12.57;6.50;;;23.10;99.90;;;;;;6280473;22;20384;-82
2022/10/28 08:59:30;;;;;;;6.27;5.60;;;22.60;99.90;;;;;;6281289;22;20723;-82
2022/10/28 09:02:17;;;;;;;8.63;6.20;;;22.30;99.90;;;;;;6282008;22;20573;-82
2022/10/28 09:04:45;;;;;;;8.50;6.47;;;21.90;99.90;;;;;;6281216;22;20420;-82
2022/10/28 09:07:21;;;;;;;9.60;6.10;;;21.40;99.90;;;;;;6281437;22;20371;-82
2022/10/28 09:09:49;;;;;;;8.60;6.10;;;21.60;99.90;;;;;;6254762;22;20452;-81
2022/10/28 09:12:44;;;;;;;6.27;5.00;;;21.60;99.90;;;;;;6281308;22;20392;-82
2022/10/28 09:15:50;;;;;;;6.70;4.80;;;21.20;99.90;;;;;;6280812;22;20347;-81
2022/10/28 09:18:26;;;;;;;6.70;6.00;;;21.00;99.90;;;;;;6281071;22;20418;-84
2022/10/28 09:20:55;;;;;;;6.50;5.90;;;20.90;99.90;;;;;;6281144;22;20385;-82
2022/10/28 09:23:28;;;;;;;6.10;5.50;;;20.70;99.90;;;;;;6252822;22;20402;-82
2022/10/28 09:26:27;;;;;;;8.20;5.10;;;20.60;99.90;;;;;;6279303;22;20778;-81
2022/10/28 09:29:16;;;;;;;9.20;5.50;;;20.50;99.90;;;;;;6279933;22;20384;-81
2022/10/28 09:31:54;;;;;;;6.50;4.07;;;20.40;99.90;;;;;;6282396;22;20400;-82
2022/10/28 09:34:39;;;;;;;11.50;5.50;;;20.40;99.90;;;;;;6280981;22;20419;-82
2022/10/28 09:37:26;;;;;;;11.47;5.63;;;20.20;99.90;;;;;;6286847;22;20356;-82
2022/10/28 09:40:01;;;;;;;4.23;3.63;;;20.20;99.90;;;;;;6297528;22;20440;-83
2022/10/28 09:42:37;;;;;;;4.07;3.57;;;20.30;99.90;;;;;;6297562;22;20385;-82
2022/10/28 09:45:14;;;;;;;4.50;4.07;;;20.40;99.90;;;;;;6292664;22;20407;-82
2022/10/28 09:47:44;;;;;;;7.00;3.97;;;20.50;99.90;;;;;;6280444;22;20385;-81
2022/10/28 09:50:17;;;;;;;7.20;3.97;;;20.70;99.90;;;;;;6279726;22;20371;-82
2022/10/28 09:53:03;;;;;;;5.00;3.90;;;20.80;99.90;;;;;;6279844;22;20726;-82
2022/10/28 09:55:31;;;;;;;5.43;4.33;;;20.90;99.90;;;;;;6253495;22;20479;-82
2022/10/28 09:57:58;;;;;;;4.73;4.00;;;21.00;99.90;;;;;;6279944;22;20464;-82
2022/10/28 10:00:25;;;;;;;9.70;3.70;;;21.20;99.90;;;;;;6252850;22;20408;-82
2022/10/28 10:02:58;;;;;;;7.33;3.73;;;21.20;99.90;;;;;;6279732;22;20579;-81
2022/10/28 10:05:29;;;;;;;4.43;3.10;;;21.00;99.90;;;;;;6253454;22;20644;-82
2022/10/28 10:08:09;;;;;;;4.20;3.10;;;21.00;99.90;;;;;;6280491;22;20464;-81
2022/10/28 10:10:52;;;;;;;7.83;4.03;;;21.00;99.90;;;;;;6280386;22;20422;-81
2022/10/28 10:13:26;;;;;;;5.03;3.57;;;21.00;99.90;;;;;;6253027;22;20449;-82
2022/10/28 10:15:57;;;;;;;4.23;3.37;;;21.20;99.90;;;;;;6280319;22;20372;-81
2022/10/28 10:18:28;;;;;;;14.33;4.83;;;21.40;99.90;;;;;;6280362;22;20404;-81
2022/10/28 10:20:57;;;;;;;5.23;3.80;;;21.60;99.90;;;;;;6254688;22;20381;-81
2022/10/28 10:23:50;;;;;;;9.50;3.87;;;21.50;99.90;;;;;;6280892;22;20363;-81
2022/10/28 10:26:17;;;;;;;4.03;3.10;;;21.50;99.90;;;;;;6275976;22;20403;-81
2022/10/28 10:28:46;;;;;;;8.47;2.97;;;21.40;99.90;;;;;;6279016;22;20813;-82
2022/10/28 10:31:25;;;;;;;3.70;3.40;;;21.40;99.90;;;;;;6279750;22;20718;-83
2022/10/28 10:33:55;;;;;;;8.73;3.10;;;21.40;99.90;;;;;;6279706;22;20386;-82
2022/10/28 10:36:27;;;;;;;4.83;4.40;;;21.50;99.90;;;;;;6280490;22;20404;-82
2022/10/28 10:38:59;;;;;;;4.40;3.40;;;21.70;99.90;;;;;;6255619;22;20370;-82
2022/10/28 10:41:42;;;;;;;6.20;4.03;;;21.80;99.90;;;;;;6282251;22;20404;-81
2022/10/28 10:44:21;;;;;;;5.60;3.33;;;21.80;99.90;;;;;;6255338;22;20430;-82
2022/10/28 10:47:01;;;;;;;9.23;3.20;;;21.80;99.90;;;;;;6255643;22;20558;-81
2022/10/28 10:49:33;;;;;;;5.97;2.60;;;21.70;99.90;;;;;;6256109;22;20331;-82
2022/10/28 10:52:08;;;;;;;3.10;2.80;;;21.70;99.90;;;;;;6281788;22;20674;-82
2022/10/28 10:54:36;;;;;;;3.50;2.90;;;21.80;99.90;;;;;;6282174;22;20400;-81
2022/10/28 10:57:20;;;;;;;3.43;3.10;;;21.80;99.90;;;;;;6281843;22;20980;-83
2022/10/28 10:59:51;;;;;;;7.83;4.17;;;22.00;99.90;;;;;;6282209;22;20696;-83
2022/10/28 11:02:38;;;;;;;7.23;3.00;;;21.90;99.90;;;;;;6256939;22;20367;-83
2022/10/28 11:05:09;;;;;;;4.30;3.50;;;22.00;99.90;;;;;;6282865;22;20667;-83
2022/10/28 11:07:39;;;;;;;6.30;3.30;;;21.90;99.90;;;;;;6282827;22;20432;-82
2022/10/28 11:10:18;;;;;;;6.40;2.97;;;21.80;99.90;;;;;;6283194;22;20402;-82
2022/10/28 11:13:10;;;;;;;10.63;4.47;;;21.90;99.90;;;;;;6255944;22;20422;-82
2022/10/28 11:15:37;;;;;;;7.37;4.13;;;22.10;99.90;;;;;;6266120;22;20432;-83
2022/10/28 11:18:10;;;;;;;4.27;3.53;;;22.30;99.90;;;;;;6282198;22;20819;-81
2022/10/28 11:21:11;;;;;;;3.73;3.43;;;22.40;99.90;;;;;;6254412;22;20367;-82
2022/10/28 11:24:06;;;;;;;9.43;3.70;;;22.50;99.90;;;;;;6258763;22;20335;-82
2022/10/28 11:26:50;;;;;;;4.70;3.10;;;22.50;99.90;;;;;;6295034;22;20443;-84
2022/10/28 11:29:18;;;;;;;6.93;3.50;;;22.70;99.90;;;;;;6256819;22;20357;-82
2022/10/28 11:32:11;;;;;;;5.90;3.23;;;22.60;99.90;;;;;;6281874;22;20701;-82
2022/10/28 11:34:56;;;;;;;8.80;3.83;;;22.50;99.90;;;;;;6255793;22;20394;-83
2022/10/28 11:37:42;;;;;;;12.10;3.23;;;22.70;99.90;;;;;;6282926;22;20375;-83
2022/10/28 11:40:29;;;;;;;5.83;3.40;;;22.60;99.90;;;;;;6282559;22;20753;-84
2022/10/28 11:43:25;;;;;;;5.77;3.00;;;22.50;99.90;;;;;;6280853;22;20593;-83
2022/10/28 11:46:08;;;;;;;5.70;2.90;;;22.30;99.90;;;;;;6282279;22;20440;-83
2022/10/28 11:48:48;;;;;;;5.17;3.00;;;22.30;99.90;;;;;;6281078;22;20679;-82
2022/10/28 11:51:44;;;;;;;4.97;3.17;;;22.30;99.90;;;;;;6255322;22;20372;-82
2022/10/28 11:54:26;;;;;;;8.43;3.77;;;22.30;99.90;;;;;;6281139;22;20413;-83
2022/10/28 11:57:33;;;;;;;3.50;2.53;;;22.30;99.90;;;;;;6281927;22;20582;-83
2022/10/28 12:00:37;;;;;;;3.00;2.70;;;22.40;99.90;;;;;;6280825;22;20462;-82
2022/10/28 12:03:24;;;;;;;5.10;2.50;;;22.50;99.90;;;;;;6280974;22;20360;-82
2022/10/28 12:06:04;;;;;;;3.37;2.07;;;22.60;99.90;;;;;;6280662;22;20398;-83
2022/10/28 12:08:41;;;;;;;2.47;2.23;;;22.70;99.90;;;;;;6281641;22;20692;-85
2022/10/28 12:11:29;;;;;;;6.37;2.80;;;22.50;99.90;;;;;;6281043;22;20426;-83
2022/10/28 12:14:27;;;;;;;5.57;2.37;;;22.40;99.90;;;;;;6281935;22;20635;-81
2022/10/28 12:17:05;;;;;;;4.50;2.50;;;22.40;99.90;;;;;;6283951;22;20422;-82
2022/10/28 12:19:39;;;;;;;2.60;2.07;;;22.60;99.90;;;;;;6282547;22;20452;-82
2022/10/28 12:22:12;;;;;;;6.77;3.23;;;22.60;99.90;;;;;;6281744;22;20562;-84
2022/10/28 12:24:42;;;;;;;5.53;2.50;;;22.50;99.90;;;;;;6281507;22;20373;-83
2022/10/28 12:27:19;;;;;;;4.37;2.57;;;22.50;99.90;;;;;;6281680;22;20400;-84
2022/10/28 12:29:51;;;;;;;16.87;2.90;;;22.50;99.90;;;;;;6280912;22;20351;-82
2022/10/28 12:32:26;;;;;;;9.10;2.93;;;22.70;99.90;;;;;;6281410;22;20543;-84
2022/10/28 12:35:20;;;;;;;5.60;3.10;;;22.50;99.90;;;;;;6282009;22;20415;-84
2022/10/28 12:38:18;;;;;;;4.23;2.83;;;22.60;99.90;;;;;;6281049;22;20521;-83
2022/10/28 12:41:04;;;;;;;8.30;3.60;;;22.60;99.90;;;;;;6281777;22;20418;-83
2022/10/28 12:43:37;;;;;;;2.40;2.20;;;22.60;99.90;;;;;;6254673;22;20385;-83
2022/10/28 12:46:08;;;;;;;3.47;2.00;;;22.70;99.90;;;;;;6259035;22;20421;-84
2022/10/28 12:48:45;;;;;;;6.40;2.20;;;22.80;99.90;;;;;;6290267;22;20428;-83
2022/10/28 12:51:23;;;;;;;4.47;2.23;;;22.80;99.90;;;;;;6255321;22;20436;-83
2022/10/28 12:54:04;;;;;;;4.20;2.30;;;22.90;99.90;;;;;;6288906;22;20670;-84
2022/10/28 12:56:40;;;;;;;9.77;3.93;;;22.90;99.90;;;;;;6301817;22;20380;-83
2022/10/28 12:59:19;;;;;;;3.57;3.27;;;22.60;99.90;;;;;;6301025;22;20368;-83
2022/10/28 13:01:48;;;;;;;3.20;2.90;;;22.50;99.90;;;;;;6273733;22;20436;-84
2022/10/28 13:04:17;;;;;;;6.37;2.60;;;22.60;99.90;;;;;;6293206;22;20703;-84
2022/10/28 13:07:15;;;;;;;4.50;2.60;;;22.50;99.90;;;;;;6284467;22;20754;-83